Time;durP1;ratioP1;P1;durP2;ratioP2;P2;SDS_P1;SDS_P2;PMS_P1;PMS_P2;Temp;Humidity;BMP_temperature;BMP_pressure;BME280_temperature;BME280_humidity;BME280_pressure;Samples;Min_cycle;Max_cycle;Signal;HPM_P1;HPM_P2
2023/04/01 00:00:55;;;;;;;1.77;0.80;;;9.20;82.70;;;;;;4991409;28;20913;-71
2023/04/01 00:03:21;;;;;;;2.77;0.97;;;9.20;82.80;;;;;;4988507;28;20523;-72
2023/04/01 00:05:47;;;;;;;3.70;1.37;;;9.30;83.00;;;;;;4991027;28;20450;-71
2023/04/01 00:08:12;;;;;;;1.87;1.07;;;9.30;83.10;;;;;;4988161;28;20798;-71
2023/04/01 00:10:38;;;;;;;2.90;0.90;;;9.30;83.00;;;;;;4988220;28;20186;-70
2023/04/01 00:13:04;;;;;;;2.37;0.90;;;9.30;82.80;;;;;;4990016;28;20579;-72
2023/04/01 00:15:30;;;;;;;2.87;1.30;;;9.30;83.00;;;;;;4991937;28;20578;-70
2023/04/01 00:17:55;;;;;;;6.83;1.07;;;9.40;82.80;;;;;;4988175;28;20190;-72
2023/04/01 00:20:21;;;;;;;2.90;1.00;;;9.30;83.00;;;;;;4988694;28;20297;-74
2023/04/01 00:22:47;;;;;;;2.10;1.20;;;9.30;83.10;;;;;;4977873;28;20682;-73
2023/04/01 00:25:15;;;;;;;4.60;1.03;;;9.30;83.00;;;;;;4990718;28;20468;-74
2023/04/01 00:27:41;;;;;;;5.77;0.97;;;9.40;82.80;;;;;;4990512;28;20418;-73
2023/04/01 00:30:07;;;;;;;2.03;0.97;;;9.30;82.80;;;;;;4990178;28;20492;-72
2023/04/01 00:32:34;;;;;;;3.77;1.20;;;9.40;82.70;;;;;;4985458;28;20215;-73
2023/04/01 00:34:59;;;;;;;3.67;1.93;;;9.40;82.80;;;;;;4989606;28;20459;-74
2023/04/01 00:37:26;;;;;;;1.70;1.00;;;9.30;82.80;;;;;;4988667;28;20441;-72
2023/04/01 00:39:51;;;;;;;3.20;1.30;;;9.30;82.80;;;;;;4990193;28;20657;-72
2023/04/01 00:42:17;;;;;;;2.03;1.00;;;9.40;83.00;;;;;;4986637;28;20481;-72
2023/04/01 00:44:47;;;;;;;4.07;1.20;;;9.30;82.80;;;;;;4987811;28;20193;-72
2023/04/01 00:47:14;;;;;;;3.70;1.30;;;9.30;82.80;;;;;;4989936;28;20425;-73
2023/04/01 00:49:43;;;;;;;3.47;1.27;;;9.30;83.00;;;;;;4990301;28;20421;-73
2023/04/01 00:52:12;;;;;;;3.43;1.40;;;9.40;83.30;;;;;;4988775;28;20433;-74
2023/04/01 00:54:42;;;;;;;5.03;1.77;;;9.40;83.70;;;;;;4987555;28;20475;-72
2023/04/01 00:57:07;;;;;;;5.20;1.50;;;9.30;84.30;;;;;;4986984;28;20421;-74
2023/04/01 00:59:38;;;;;;;4.40;1.40;;;9.30;84.60;;;;;;4989227;28;20430;-72
2023/04/01 01:02:09;;;;;;;3.20;1.27;;;9.30;84.30;;;;;;4989073;28;20689;-73
2023/04/01 01:04:35;;;;;;;2.97;1.07;;;9.30;84.60;;;;;;4990997;28;20528;-72
2023/04/01 01:07:34;;;;;;;7.23;1.13;;;9.30;84.70;;;;;;4992211;28;20511;-72
2023/04/01 01:10:08;;;;;;;4.47;1.47;;;9.30;85.20;;;;;;4981575;28;20423;-72
2023/04/01 01:13:03;;;;;;;2.53;1.00;;;9.20;85.90;;;;;;4987569;28;20472;-74
2023/04/01 01:15:56;;;;;;;1.40;0.87;;;9.10;86.50;;;;;;4989110;28;20440;-73
2023/04/01 01:18:43;;;;;;;6.73;1.70;;;9.00;87.00;;;;;;4987193;28;20469;-72
2023/04/01 01:21:27;;;;;;;3.33;1.20;;;9.00;87.10;;;;;;4985453;28;20434;-72
2023/04/01 01:24:10;;;;;;;6.10;1.17;;;9.00;87.00;;;;;;4982763;28;20472;-72
2023/04/01 01:26:59;;;;;;;6.50;1.20;;;9.10;86.60;;;;;;4985765;28;20441;-71
2023/04/01 01:30:01;;;;;;;6.00;1.47;;;9.10;86.60;;;;;;4989700;28;20794;-71
2023/04/01 01:32:48;;;;;;;2.10;1.20;;;9.10;86.30;;;;;;4986014;28;20469;-72
2023/04/01 01:35:38;;;;;;;2.60;1.30;;;9.10;86.20;;;;;;4991198;28;20423;-74
2023/04/01 01:38:09;;;;;;;4.23;1.10;;;9.10;86.00;;;;;;4988814;28;20457;-74
2023/04/01 01:40:36;;;;;;;1.77;0.90;;;9.20;86.00;;;;;;4998714;28;21347;-71
2023/04/01 01:43:11;;;;;;;2.40;1.00;;;9.20;85.90;;;;;;4987423;28;20477;-74
2023/04/01 01:45:42;;;;;;;3.57;1.40;;;9.20;85.60;;;;;;4991135;28;20520;-73
2023/04/01 01:48:09;;;;;;;8.87;1.30;;;9.20;85.70;;;;;;4992697;28;21092;-73
2023/04/01 01:50:36;;;;;;;3.87;1.13;;;9.20;86.00;;;;;;4993045;28;20428;-73
2023/04/01 01:53:07;;;;;;;2.10;1.30;;;9.10;86.30;;;;;;4991919;28;20461;-72
2023/04/01 01:55:36;;;;;;;3.40;1.10;;;9.00;86.60;;;;;;4992466;28;20414;-72
2023/04/01 01:58:11;;;;;;;1.77;1.03;;;9.00;87.10;;;;;;4992342;28;20461;-74
2023/04/01 02:00:38;;;;;;;2.80;0.93;;;8.90;87.40;;;;;;4992661;28;20413;-72
2023/04/01 02:03:05;;;;;;;2.17;1.10;;;8.90;87.70;;;;;;4987984;28;21878;-74
2023/04/01 02:05:31;;;;;;;5.63;0.90;;;8.90;88.10;;;;;;4992659;28;20443;-71
2023/04/01 02:08:11;;;;;;;2.00;0.87;;;8.90;88.10;;;;;;4990735;28;20430;-72
2023/04/01 02:10:41;;;;;;;1.93;1.00;;;8.90;87.80;;;;;;4991197;28;20454;-73
2023/04/01 02:13:16;;;;;;;1.83;0.90;;;8.80;87.70;;;;;;4981436;28;20466;-72
2023/04/01 02:15:47;;;;;;;3.00;0.80;;;8.90;87.60;;;;;;5001973;28;20951;-72
2023/04/01 02:18:14;;;;;;;2.17;1.00;;;8.90;87.30;;;;;;4989609;28;20501;-75
2023/04/01 02:20:41;;;;;;;1.20;1.10;;;8.90;87.10;;;;;;4992234;28;20967;-71
2023/04/01 02:23:09;;;;;;;1.57;0.70;;;8.90;86.60;;;;;;4987083;28;20547;-72
2023/04/01 02:25:37;;;;;;;1.47;0.70;;;8.90;86.60;;;;;;4987105;28;20426;-73
2023/04/01 02:28:06;;;;;;;1.70;0.87;;;8.90;86.80;;;;;;5000857;28;20438;-72
2023/04/01 02:30:34;;;;;;;1.47;0.97;;;8.90;86.80;;;;;;4991993;28;20457;-74
2023/04/01 02:33:01;;;;;;;2.00;0.97;;;8.90;86.60;;;;;;4990046;28;20493;-73
2023/04/01 02:35:27;;;;;;;2.00;0.77;;;8.90;86.50;;;;;;4989915;28;21039;-72
2023/04/01 02:37:54;;;;;;;1.17;0.70;;;8.90;86.00;;;;;;4991463;28;20436;-73
2023/04/01 02:40:20;;;;;;;4.53;0.70;;;8.90;86.00;;;;;;4991841;28;20650;-74
2023/04/01 02:42:46;;;;;;;0.77;0.50;;;8.90;85.70;;;;;;4984980;28;20536;-71
2023/04/01 02:45:12;;;;;;;0.93;0.60;;;8.90;85.60;;;;;;4990297;28;20183;-73
2023/04/01 02:47:38;;;;;;;1.60;0.80;;;8.80;85.30;;;;;;4994604;28;20555;-73
2023/04/01 02:50:04;;;;;;;1.00;0.60;;;8.80;85.20;;;;;;4991945;28;20429;-72
2023/04/01 02:52:30;;;;;;;1.97;0.70;;;8.80;85.20;;;;;;4982336;28;20207;-71
2023/04/01 02:54:56;;;;;;;1.77;0.70;;;8.80;85.00;;;;;;4988179;28;20426;-74
2023/04/01 02:57:23;;;;;;;2.40;0.83;;;8.80;85.00;;;;;;4990835;28;20339;-72
2023/04/01 02:59:49;;;;;;;3.67;1.00;;;8.80;85.20;;;;;;4991139;28;20430;-73
2023/04/01 03:02:16;;;;;;;2.13;0.80;;;8.80;84.90;;;;;;4990560;28;20842;-71
2023/04/01 03:04:42;;;;;;;2.93;0.80;;;8.80;84.90;;;;;;4988266;28;21064;-71
2023/04/01 03:07:09;;;;;;;1.07;0.70;;;8.80;84.70;;;;;;4991109;28;20425;-73
2023/04/01 03:09:36;;;;;;;1.03;0.63;;;8.70;84.90;;;;;;4991564;28;20178;-73
2023/04/01 03:12:01;;;;;;;2.90;0.70;;;8.70;85.00;;;;;;4990904;28;20422;-71
2023/04/01 03:14:27;;;;;;;1.20;0.70;;;8.70;84.90;;;;;;4988616;28;20821;-73
2023/04/01 03:16:52;;;;;;;2.00;0.90;;;8.70;84.90;;;;;;4991706;28;20655;-72
2023/04/01 03:19:18;;;;;;;1.00;0.70;;;8.70;84.60;;;;;;4991543;28;20255;-72
2023/04/01 03:21:44;;;;;;;1.90;0.80;;;8.70;84.70;;;;;;4991953;28;20571;-73
2023/04/01 03:24:09;;;;;;;5.13;0.80;;;8.70;84.90;;;;;;4986310;28;20712;-73
2023/04/01 03:26:35;;;;;;;1.03;0.70;;;8.60;85.20;;;;;;4990910;28;20221;-74
2023/04/01 03:29:00;;;;;;;3.90;0.90;;;8.60;85.30;;;;;;4990040;28;20178;-73
2023/04/01 03:31:26;;;;;;;1.20;0.70;;;8.50;85.30;;;;;;4999239;28;20242;-74
2023/04/01 03:33:52;;;;;;;1.10;0.60;;;8.50;85.20;;;;;;4995017;28;20309;-72
2023/04/01 03:36:18;;;;;;;0.70;0.70;;;8.60;85.20;;;;;;5000378;28;20916;-72
2023/04/01 03:38:44;;;;;;;1.20;0.60;;;8.60;84.90;;;;;;4992091;28;20186;-72
2023/04/01 03:41:17;;;;;;;2.77;1.00;;;8.60;84.90;;;;;;4992037;28;20422;-72
2023/04/01 03:43:43;;;;;;;1.00;0.70;;;8.60;84.70;;;;;;4984312;28;20565;-73
2023/04/01 03:46:09;;;;;;;2.50;0.60;;;8.60;83.70;;;;;;4989868;28;20418;-74
2023/04/01 03:48:35;;;;;;;1.00;0.60;;;8.70;83.10;;;;;;4989890;28;20521;-74
2023/04/01 03:51:00;;;;;;;1.30;0.60;;;8.70;83.00;;;;;;4991014;28;20448;-74
2023/04/01 03:53:26;;;;;;;1.57;0.63;;;8.70;82.50;;;;;;4987173;28;20557;-72
2023/04/01 03:55:52;;;;;;;2.07;1.10;;;8.80;82.50;;;;;;4987058;28;20183;-73
2023/04/01 03:58:18;;;;;;;3.97;0.80;;;8.70;82.70;;;;;;4985601;28;21031;-71
2023/04/01 04:00:44;;;;;;;1.63;0.63;;;8.80;82.70;;;;;;4989283;28;20442;-72
2023/04/01 04:03:09;;;;;;;1.50;0.70;;;8.70;82.50;;;;;;4984231;28;20498;-74
2023/04/01 04:05:35;;;;;;;1.73;0.80;;;8.60;82.50;;;;;;4990146;28;20644;-73
2023/04/01 04:08:01;;;;;;;1.20;0.70;;;8.60;82.40;;;;;;4990076;28;20569;-74
2023/04/01 04:10:28;;;;;;;1.90;0.60;;;8.60;82.20;;;;;;4989319;28;20221;-73
2023/04/01 04:12:55;;;;;;;0.80;0.60;;;8.60;82.40;;;;;;4987433;28;20221;-73
2023/04/01 04:15:20;;;;;;;1.20;0.60;;;8.60;82.50;;;;;;4990207;28;20433;-74
2023/04/01 04:17:47;;;;;;;1.50;0.70;;;8.60;82.10;;;;;;4989804;28;20449;-72
2023/04/01 04:20:13;;;;;;;2.37;0.70;;;8.60;81.80;;;;;;4990628;28;20361;-73
2023/04/01 04:22:38;;;;;;;1.53;0.63;;;8.60;81.80;;;;;;4985145;28;20568;-73
2023/04/01 04:25:04;;;;;;;2.40;0.60;;;8.60;81.80;;;;;;4994542;28;20471;-72
2023/04/01 04:27:30;;;;;;;2.00;0.70;;;8.60;81.80;;;;;;5002166;28;20183;-71
2023/04/01 04:29:55;;;;;;;1.57;0.80;;;8.50;81.90;;;;;;4997702;28;20446;-72
2023/04/01 04:32:21;;;;;;;3.70;0.60;;;8.50;82.10;;;;;;4999598;28;20223;-72
2023/04/01 04:34:46;;;;;;;1.90;0.60;;;8.40;82.20;;;;;;5000810;28;20266;-74
2023/04/01 04:37:12;;;;;;;0.80;0.50;;;8.40;82.40;;;;;;4996759;28;20187;-73
2023/04/01 04:39:37;;;;;;;1.30;0.50;;;8.40;82.50;;;;;;5004677;28;20209;-74
2023/04/01 04:42:03;;;;;;;2.53;0.70;;;8.30;82.80;;;;;;5002975;28;20203;-72
2023/04/01 04:44:29;;;;;;;1.03;0.60;;;8.20;83.30;;;;;;4991870;28;20191;-74
2023/04/01 04:46:55;;;;;;;2.63;0.70;;;8.20;83.60;;;;;;4988296;28;20720;-72
2023/04/01 04:49:20;;;;;;;0.70;0.60;;;8.20;83.60;;;;;;4990245;28;20178;-73
2023/04/01 04:51:46;;;;;;;1.20;0.60;;;8.20;83.70;;;;;;4989528;28;20187;-72
2023/04/01 04:54:11;;;;;;;1.93;0.90;;;8.20;84.00;;;;;;4986557;28;20601;-72
2023/04/01 04:56:37;;;;;;;0.80;0.60;;;8.20;84.10;;;;;;4989260;28;20297;-74
2023/04/01 04:59:02;;;;;;;1.20;0.67;;;8.20;84.30;;;;;;4989738;28;20195;-72
2023/04/01 05:01:28;;;;;;;1.37;0.60;;;8.20;84.60;;;;;;4990022;28;20210;-74
2023/04/01 05:03:54;;;;;;;1.33;0.67;;;8.20;84.70;;;;;;4987523;28;20206;-73
2023/04/01 05:06:20;;;;;;;1.73;0.70;;;8.20;85.00;;;;;;4989253;28;20226;-71
2023/04/01 05:08:46;;;;;;;1.47;0.70;;;8.20;85.20;;;;;;4986859;28;20508;-71
2023/04/01 05:11:17;;;;;;;1.93;0.73;;;8.20;85.00;;;;;;4992679;28;20694;-73
2023/04/01 05:13:43;;;;;;;2.30;1.00;;;8.20;85.20;;;;;;4989567;28;20548;-72
2023/04/01 05:16:14;;;;;;;2.30;0.70;;;8.30;84.90;;;;;;4992562;28;20417;-72
2023/04/01 05:18:40;;;;;;;5.23;1.00;;;8.30;84.90;;;;;;4985604;28;20885;-72
2023/04/01 05:21:08;;;;;;;4.70;1.00;;;8.30;84.70;;;;;;4991533;28;20422;-73
2023/04/01 05:23:34;;;;;;;6.00;0.80;;;8.40;84.90;;;;;;4984879;28;20318;-72
2023/04/01 05:26:05;;;;;;;3.17;1.10;;;8.40;84.40;;;;;;4991381;28;21017;-71
2023/04/01 05:28:31;;;;;;;4.30;1.00;;;8.40;84.30;;;;;;4991251;28;20437;-72
2023/04/01 05:31:00;;;;;;;3.10;1.10;;;8.50;84.30;;;;;;4992783;28;20429;-72
2023/04/01 05:33:26;;;;;;;5.23;1.00;;;8.50;84.40;;;;;;4985759;28;20618;-71
2023/04/01 05:35:53;;;;;;;1.47;0.80;;;8.50;84.60;;;;;;4990693;28;20433;-71
2023/04/01 05:38:18;;;;;;;2.27;0.90;;;8.50;84.40;;;;;;4991407;28;20463;-72
2023/04/01 05:40:44;;;;;;;1.93;0.83;;;8.60;84.00;;;;;;4992858;28;20795;-70
2023/04/01 05:43:10;;;;;;;1.47;0.83;;;8.60;84.00;;;;;;4986916;28;20233;-71
2023/04/01 05:45:35;;;;;;;1.43;1.00;;;8.70;83.10;;;;;;4995183;28;20445;-72
2023/04/01 05:48:01;;;;;;;3.90;0.90;;;8.80;82.80;;;;;;4996314;28;20217;-71
2023/04/01 05:50:26;;;;;;;3.70;0.83;;;8.80;82.70;;;;;;4993009;28;20506;-72
2023/04/01 05:52:53;;;;;;;3.40;1.17;;;8.80;82.10;;;;;;4994283;28;20217;-72
2023/04/01 05:55:18;;;;;;;3.80;1.07;;;8.80;82.10;;;;;;4991982;28;20194;-72
2023/04/01 05:57:46;;;;;;;4.97;1.00;;;8.90;81.70;;;;;;4991533;28;20432;-72
2023/04/01 06:00:12;;;;;;;3.03;0.80;;;8.90;81.50;;;;;;4990532;28;20179;-72
2023/04/01 06:02:38;;;;;;;1.10;0.70;;;8.90;81.40;;;;;;4993323;28;20488;-72
2023/04/01 06:05:23;;;;;;;4.40;0.90;;;9.00;81.10;;;;;;4953418;28;1086036;-72
2023/04/01 06:07:57;;;;;;;4.80;1.10;;;9.00;80.90;;;;;;4989710;28;20273;-72
2023/04/01 06:10:44;;;;;;;1.70;1.10;;;9.00;80.60;;;;;;4993948;28;20482;-72
2023/04/01 06:13:42;;;;;;;3.03;1.13;;;9.10;80.30;;;;;;4991616;28;20547;-71
2023/04/01 06:16:26;;;;;;;2.30;1.00;;;9.20;79.60;;;;;;4990947;28;21226;-73
2023/04/01 06:18:59;;;;;;;1.23;0.70;;;9.30;79.50;;;;;;4993479;28;20436;-71
2023/04/01 06:21:47;;;;;;;1.43;0.70;;;9.30;78.70;;;;;;4991882;28;20446;-72
2023/04/01 06:24:51;;;;;;;2.60;1.20;;;9.40;78.00;;;;;;4991234;28;20468;-73
2023/04/01 06:27:35;;;;;;;1.70;0.60;;;9.50;77.80;;;;;;4989436;28;20483;-71
2023/04/01 06:30:30;;;;;;;1.57;0.90;;;9.50;77.80;;;;;;4998736;28;20428;-73
2023/04/01 06:33:05;;;;;;;2.17;0.97;;;9.50;77.80;;;;;;4985036;28;20458;-72
2023/04/01 06:35:42;;;;;;;2.73;0.80;;;9.60;77.80;;;;;;4992309;28;20413;-71
2023/04/01 06:38:50;;;;;;;1.20;0.77;;;9.50;77.70;;;;;;4991302;28;20429;-72
2023/04/01 06:41:27;;;;;;;1.37;0.70;;;9.60;77.70;;;;;;4990719;28;20414;-74
2023/04/01 06:44:08;;;;;;;1.43;0.70;;;9.70;77.40;;;;;;4985290;28;20492;-74
2023/04/01 06:46:57;;;;;;;4.33;1.10;;;9.70;77.30;;;;;;4990685;28;20790;-74
2023/04/01 06:49:44;;;;;;;4.63;0.70;;;9.70;77.30;;;;;;4992608;28;20525;-74
2023/04/01 06:52:47;;;;;;;2.10;0.90;;;9.60;77.70;;;;;;4987381;28;20429;-72
2023/04/01 06:55:32;;;;;;;4.27;1.73;;;9.70;77.80;;;;;;4989586;28;20417;-74
2023/04/01 06:58:00;;;;;;;2.53;0.93;;;9.70;77.40;;;;;;4986510;28;20429;-73
2023/04/01 07:00:39;;;;;;;2.97;0.83;;;9.70;77.70;;;;;;4990828;28;20806;-74
2023/04/01 07:03:19;;;;;;;3.37;1.37;;;9.70;77.80;;;;;;4986706;28;20569;-73
2023/04/01 07:05:45;;;;;;;1.00;0.70;;;9.70;78.00;;;;;;4985132;28;20449;-74
2023/04/01 07:08:17;;;;;;;1.20;0.80;;;9.70;77.80;;;;;;4990378;28;20426;-73
2023/04/01 07:11:01;;;;;;;2.37;0.80;;;9.80;77.60;;;;;;4982867;28;21258;-74
2023/04/01 07:13:31;;;;;;;1.00;0.77;;;9.80;77.80;;;;;;4987849;28;20469;-73
2023/04/01 07:16:08;;;;;;;2.80;0.90;;;9.90;77.80;;;;;;4990994;28;20703;-74
2023/04/01 07:18:50;;;;;;;1.80;1.00;;;9.90;77.70;;;;;;4989966;28;20434;-73
2023/04/01 07:21:28;;;;;;;2.63;0.80;;;9.90;77.70;;;;;;4990983;28;20440;-73
2023/04/01 07:24:00;;;;;;;2.47;0.97;;;9.80;78.30;;;;;;4983161;28;20507;-74
2023/04/01 07:26:26;;;;;;;1.73;0.90;;;9.80;78.60;;;;;;4990501;28;20429;-75
2023/04/01 07:28:53;;;;;;;5.07;0.90;;;9.80;78.90;;;;;;4989710;28;21075;-74
2023/04/01 07:31:27;;;;;;;0.90;0.77;;;9.80;78.70;;;;;;4990563;28;20426;-74
2023/04/01 07:34:24;;;;;;;4.70;0.97;;;9.80;78.70;;;;;;4984738;28;20461;-74
2023/04/01 07:37:02;;;;;;;1.40;0.80;;;9.80;78.40;;;;;;4988870;28;20437;-75
2023/04/01 07:39:57;;;;;;;3.60;1.20;;;9.80;78.40;;;;;;4989424;28;20449;-73
2023/04/01 07:42:38;;;;;;;2.10;0.90;;;9.80;78.70;;;;;;4986032;28;20521;-74
2023/04/01 07:45:03;;;;;;;3.93;1.20;;;9.80;78.60;;;;;;4984068;28;20432;-74
2023/04/01 07:48:20;;;;;;;2.23;0.80;;;9.80;78.30;;;;;;4988760;28;20410;-74
2023/04/01 07:51:07;;;;;;;3.13;1.03;;;9.90;78.10;;;;;;4979275;28;20191;-74
2023/04/01 07:53:41;;;;;;;8.30;1.40;;;9.90;78.30;;;;;;4984876;28;20988;-72
2023/04/01 07:56:18;;;;;;;2.77;1.00;;;9.90;78.60;;;;;;4987436;28;21199;-71
2023/04/01 07:59:17;;;;;;;2.53;1.00;;;10.00;78.00;;;;;;4987195;28;20476;-71
2023/04/01 08:01:57;;;;;;;4.03;1.10;;;10.10;77.60;;;;;;4989067;28;20469;-70
2023/04/01 08:04:56;;;;;;;4.17;1.00;;;10.10;77.40;;;;;;4986246;28;20444;-72
2023/04/01 08:07:50;;;;;;;1.57;0.90;;;10.10;77.70;;;;;;4990302;28;20939;-70
2023/04/01 08:10:27;;;;;;;1.30;0.90;;;10.20;77.60;;;;;;4986904;28;20564;-72
2023/04/01 08:13:18;;;;;;;3.17;1.10;;;10.20;77.30;;;;;;4984053;28;20564;-74
2023/04/01 08:15:58;;;;;;;1.53;0.80;;;10.10;77.10;;;;;;4990355;28;20432;-71
2023/04/01 08:18:43;;;;;;;1.03;0.70;;;10.20;77.60;;;;;;4990461;28;20429;-73
2023/04/01 08:21:23;;;;;;;8.87;1.27;;;10.30;77.40;;;;;;4993408;28;20426;-75
2023/04/01 08:23:52;;;;;;;1.37;0.70;;;10.30;77.80;;;;;;4983423;28;20469;-75
2023/04/01 08:26:26;;;;;;;2.30;0.73;;;10.30;77.80;;;;;;4990551;28;20816;-73
2023/04/01 08:29:02;;;;;;;3.17;1.97;;;10.30;77.70;;;;;;4990203;28;20409;-74
2023/04/01 08:31:43;;;;;;;5.03;0.93;;;10.30;78.00;;;;;;4991257;28;20928;-73
2023/04/01 08:34:18;;;;;;;1.63;1.03;;;10.30;77.80;;;;;;4984542;28;20461;-73
2023/04/01 08:36:50;;;;;;;4.00;1.00;;;10.40;78.10;;;;;;4985208;28;20413;-73
2023/04/01 08:39:30;;;;;;;1.47;0.80;;;10.20;78.60;;;;;;4982319;28;20441;-75
2023/04/01 08:42:27;;;;;;;2.07;1.00;;;10.20;79.30;;;;;;4989227;28;20886;-73
2023/04/01 08:45:00;;;;;;;4.80;1.10;;;10.10;80.20;;;;;;4989937;28;20807;-73
2023/04/01 08:47:52;;;;;;;4.10;1.00;;;10.00;80.80;;;;;;4990496;28;20505;-71
2023/04/01 08:50:35;;;;;;;3.03;1.13;;;9.90;81.50;;;;;;4988157;28;20545;-74
2023/04/01 08:53:31;;;;;;;1.53;0.83;;;9.70;83.00;;;;;;4986423;28;20591;-74
2023/04/01 08:56:22;;;;;;;1.70;1.00;;;9.60;83.70;;;;;;4983972;28;20417;-72
2023/04/01 08:59:00;;;;;;;1.00;0.70;;;9.30;84.30;;;;;;4986500;28;20465;-73
2023/04/01 09:01:46;;;;;;;2.10;0.70;;;9.20;85.30;;;;;;4990092;28;20422;-74
2023/04/01 09:04:44;;;;;;;1.93;1.10;;;9.10;85.90;;;;;;4984789;28;20453;-72
2023/04/01 09:07:34;;;;;;;1.57;1.00;;;9.10;84.30;;;;;;4977123;28;20773;-73
2023/04/01 09:10:24;;;;;;;2.97;0.80;;;9.10;84.70;;;;;;4981389;28;20418;-72
2023/04/01 09:13:11;;;;;;;2.07;0.90;;;9.20;85.30;;;;;;4987069;28;20980;-74
2023/04/01 09:15:49;;;;;;;4.23;0.80;;;9.30;85.00;;;;;;4991590;28;20417;-75
2023/04/01 09:18:32;;;;;;;1.60;0.80;;;9.40;84.70;;;;;;4989350;28;20763;-72
2023/04/01 09:21:24;;;;;;;1.00;0.60;;;9.50;83.60;;;;;;4988718;28;20513;-73
2023/04/01 09:24:11;;;;;;;1.93;0.70;;;9.70;82.70;;;;;;4976788;28;20501;-72
2023/04/01 09:26:39;;;;;;;0.93;0.73;;;9.70;81.80;;;;;;4989302;28;20413;-74
2023/04/01 09:29:38;;;;;;;0.70;0.60;;;9.90;81.50;;;;;;4989626;28;20425;-73
2023/04/01 09:32:10;;;;;;;1.37;1.00;;;10.00;80.30;;;;;;4986304;28;20410;-72
2023/04/01 09:34:54;;;;;;;1.63;0.60;;;10.10;80.00;;;;;;4988524;28;20445;-75
2023/04/01 09:37:21;;;;;;;0.80;0.60;;;10.30;79.20;;;;;;4988776;28;20426;-74
2023/04/01 09:40:10;;;;;;;1.20;0.70;;;10.40;78.70;;;;;;4991334;28;20426;-73
2023/04/01 09:43:02;;;;;;;1.70;1.17;;;10.40;79.00;;;;;;4983483;28;20486;-74
2023/04/01 09:45:45;;;;;;;3.13;0.70;;;10.20;79.30;;;;;;4989270;28;20413;-73
2023/04/01 09:48:10;;;;;;;1.13;0.70;;;10.20;80.50;;;;;;4989234;28;20417;-73
2023/04/01 09:50:49;;;;;;;2.20;0.70;;;10.10;79.90;;;;;;4990184;28;20843;-74
2023/04/01 09:53:40;;;;;;;0.80;0.60;;;10.00;79.60;;;;;;4983929;28;20213;-74
2023/04/01 09:56:44;;;;;;;2.13;0.77;;;10.00;79.90;;;;;;4987930;28;20487;-72
2023/04/01 09:59:31;;;;;;;0.93;0.70;;;10.00;80.90;;;;;;4990603;28;20975;-75
2023/04/01 10:02:40;;;;;;;0.90;0.70;;;9.90;80.20;;;;;;4990549;28;20465;-73
2023/04/01 10:05:08;;;;;;;1.13;0.87;;;10.00;80.60;;;;;;4995251;28;20492;-70
2023/04/01 10:08:01;;;;;;;0.87;0.70;;;10.00;79.90;;;;;;4994892;28;20453;-73
2023/04/01 10:10:51;;;;;;;1.40;0.70;;;10.10;79.60;;;;;;4988578;28;20461;-74
2023/04/01 10:13:20;;;;;;;0.83;0.60;;;10.20;79.30;;;;;;4989565;28;20540;-75
2023/04/01 10:15:50;;;;;;;0.80;0.70;;;10.20;78.10;;;;;;4994343;28;20426;-74
2023/04/01 10:18:31;;;;;;;2.20;0.83;;;10.30;78.40;;;;;;4992734;28;20480;-75
2023/04/01 10:21:09;;;;;;;1.30;0.70;;;10.40;77.70;;;;;;4993687;28;20416;-73
2023/04/01 10:23:50;;;;;;;1.07;0.67;;;10.40;77.10;;;;;;4987843;28;20480;-74
2023/04/01 10:26:42;;;;;;;0.87;0.50;;;10.40;76.50;;;;;;4993401;28;20425;-74
2023/04/01 10:29:46;;;;;;;1.53;0.90;;;10.60;76.50;;;;;;4994557;28;20430;-74
2023/04/01 10:32:53;;;;;;;0.70;0.60;;;10.80;75.50;;;;;;4987262;28;20796;-72
2023/04/01 10:35:37;;;;;;;2.10;0.57;;;10.80;75.50;;;;;;4988298;28;20773;-73
2023/04/01 10:38:19;;;;;;;1.57;0.70;;;10.90;75.50;;;;;;4988554;28;20840;-72
2023/04/01 10:41:06;;;;;;;1.20;0.77;;;11.00;74.60;;;;;;4993023;28;20516;-73
2023/04/01 10:43:53;;;;;;;1.10;0.50;;;11.00;74.90;;;;;;4983081;28;20542;-73
2023/04/01 10:46:37;;;;;;;0.73;0.57;;;11.00;74.30;;;;;;4990725;28;20425;-73
2023/04/01 10:49:22;;;;;;;1.47;0.93;;;11.00;74.20;;;;;;4992335;28;20522;-72
2023/04/01 10:52:15;;;;;;;1.63;0.70;;;11.00;74.50;;;;;;4990016;28;20421;-72
2023/04/01 10:55:18;;;;;;;0.80;0.70;;;11.00;74.20;;;;;;4987525;28;20953;-73
2023/04/01 10:58:12;;;;;;;1.70;0.70;;;11.10;74.00;;;;;;4979312;28;20679;-74
2023/04/01 11:01:15;;;;;;;1.00;0.73;;;10.90;74.50;;;;;;4989558;28;20461;-74
2023/04/01 11:04:26;;;;;;;0.60;0.50;;;10.90;74.30;;;;;;4981522;28;20538;-72
2023/04/01 11:07:29;;;;;;;1.00;0.63;;;10.80;74.60;;;;;;4985191;28;20426;-73
2023/04/01 11:10:38;;;;;;;0.83;0.63;;;10.80;75.10;;;;;;4990671;28;20448;-72
2023/04/01 11:13:28;;;;;;;1.73;0.77;;;11.00;74.80;;;;;;4986563;28;20552;-74
2023/04/01 11:15:56;;;;;;;0.73;0.50;;;10.90;73.90;;;;;;4989718;28;20441;-73
2023/04/01 11:18:34;;;;;;;0.90;0.50;;;11.10;73.50;;;;;;4991727;28;20936;-74
2023/04/01 11:21:02;;;;;;;0.63;0.40;;;11.20;73.00;;;;;;4997842;28;20480;-73
2023/04/01 11:23:36;;;;;;;1.00;0.60;;;11.40;72.90;;;;;;4989236;28;20487;-74
2023/04/01 11:26:14;;;;;;;1.23;0.70;;;11.80;71.70;;;;;;4990424;28;20416;-74
2023/04/01 11:29:04;;;;;;;1.27;0.70;;;11.80;71.00;;;;;;4988886;28;20422;-73
2023/04/01 11:31:57;;;;;;;2.10;0.60;;;11.80;71.10;;;;;;4994815;28;20422;-74
2023/04/01 11:34:55;;;;;;;1.03;0.67;;;11.90;70.80;;;;;;4986627;28;20551;-73
2023/04/01 11:38:02;;;;;;;1.00;0.60;;;12.20;71.00;;;;;;4976455;28;20531;-72
2023/04/01 11:40:37;;;;;;;0.90;0.60;;;12.40;70.10;;;;;;4983516;28;20762;-74
2023/04/01 11:43:47;;;;;;;0.60;0.50;;;12.40;69.80;;;;;;4989766;28;20568;-74
2023/04/01 11:46:31;;;;;;;2.70;0.60;;;12.30;69.20;;;;;;4990886;28;21231;-75
2023/04/01 11:49:12;;;;;;;1.30;0.70;;;12.30;70.10;;;;;;4986888;28;20543;-74
2023/04/01 11:51:44;;;;;;;1.00;0.70;;;12.00;70.40;;;;;;4987629;28;21078;-74
2023/04/01 11:54:31;;;;;;;1.07;0.57;;;12.00;70.70;;;;;;4983039;28;20952;-72
2023/04/01 11:57:34;;;;;;;0.90;0.70;;;12.10;70.20;;;;;;4989677;28;20428;-74
2023/04/01 12:00:12;;;;;;;1.03;0.80;;;11.80;70.50;;;;;;4991128;28;20414;-74
2023/04/01 12:02:55;;;;;;;1.73;0.60;;;11.60;71.40;;;;;;4986134;28;21072;-73
2023/04/01 12:05:36;;;;;;;1.03;0.70;;;11.50;72.10;;;;;;4990543;28;20540;-73
2023/04/01 12:08:29;;;;;;;1.33;0.80;;;11.40;72.90;;;;;;4987522;28;20467;-74
2023/04/01 12:11:01;;;;;;;4.97;0.60;;;11.50;73.20;;;;;;4988605;28;20410;-73
2023/04/01 12:13:39;;;;;;;1.27;0.70;;;11.40;72.60;;;;;;4987696;28;20464;-75
2023/04/01 12:16:49;;;;;;;1.83;0.60;;;11.40;73.00;;;;;;4988404;28;20425;-74
2023/04/01 12:19:19;;;;;;;1.10;0.60;;;11.30;72.70;;;;;;4954103;28;20970;-73
2023/04/01 12:21:52;;;;;;;0.80;0.60;;;11.10;73.50;;;;;;4955279;28;20466;-74
2023/04/01 12:24:42;;;;;;;1.23;0.70;;;11.10;74.60;;;;;;4950853;28;20667;-75
2023/04/01 12:27:08;;;;;;;1.17;0.63;;;11.00;74.90;;;;;;4946129;28;20428;-72
2023/04/01 12:29:54;;;;;;;1.77;0.80;;;10.80;75.70;;;;;;4956581;28;20441;-72
2023/04/01 12:32:55;;;;;;;1.70;0.70;;;10.90;75.90;;;;;;4951706;28;20208;-74
2023/04/01 12:35:38;;;;;;;2.00;0.80;;;11.00;76.20;;;;;;4897302;29;21595;-74
2023/04/01 12:38:25;;;;;;;0.90;0.73;;;11.10;75.10;;;;;;4950874;28;20869;-73
2023/04/01 12:40:56;;;;;;;1.10;0.60;;;11.30;74.90;;;;;;4955209;28;20493;-74
2023/04/01 12:44:06;;;;;;;1.07;0.60;;;11.30;74.20;;;;;;4951694;28;20531;-74
2023/04/01 12:47:09;;;;;;;0.80;0.60;;;11.50;73.30;;;;;;4950927;28;20431;-73
2023/04/01 12:49:57;;;;;;;1.43;0.60;;;11.80;72.60;;;;;;4952446;28;20945;-75
2023/04/01 12:52:45;;;;;;;0.73;0.60;;;12.30;72.00;;;;;;4954025;28;20491;-73
2023/04/01 12:55:23;;;;;;;0.77;0.60;;;12.20;70.70;;;;;;4958375;28;20492;-73
2023/04/01 12:58:00;;;;;;;0.70;0.50;;;12.20;69.90;;;;;;4988010;28;20425;-72
2023/04/01 13:00:31;;;;;;;1.00;0.63;;;12.00;70.10;;;;;;4990002;28;20429;-73
2023/04/01 13:03:29;;;;;;;0.90;0.60;;;12.10;70.20;;;;;;4986648;28;20477;-73
2023/04/01 13:06:00;;;;;;;1.60;0.80;;;12.20;70.20;;;;;;4987194;28;20468;-75
2023/04/01 13:08:44;;;;;;;0.97;0.70;;;12.30;70.20;;;;;;4985463;28;20425;-74
2023/04/01 13:11:30;;;;;;;1.00;0.80;;;12.30;68.90;;;;;;4987930;28;21077;-73
2023/04/01 13:14:32;;;;;;;1.00;0.70;;;12.10;69.20;;;;;;4981831;28;20453;-74
2023/04/01 13:17:06;;;;;;;0.80;0.60;;;12.00;69.70;;;;;;4986586;28;20406;-74
2023/04/01 13:19:38;;;;;;;0.73;0.50;;;11.90;70.20;;;;;;4990374;28;20479;-75
2023/04/01 13:22:17;;;;;;;1.23;0.60;;;11.70;70.70;;;;;;4986805;28;20469;-73
2023/04/01 13:25:10;;;;;;;0.80;0.50;;;11.70;70.70;;;;;;4982930;28;20421;-73
2023/04/01 13:27:51;;;;;;;0.80;0.50;;;11.80;70.20;;;;;;4988672;28;20450;-74
2023/04/01 13:31:01;;;;;;;0.80;0.60;;;11.80;70.80;;;;;;4988871;28;20504;-74
2023/04/01 13:33:54;;;;;;;0.97;0.60;;;11.90;70.70;;;;;;4991861;28;20483;-74
2023/04/01 13:36:37;;;;;;;1.70;0.90;;;12.10;70.20;;;;;;4992751;28;20431;-73
2023/04/01 13:39:11;;;;;;;0.80;0.60;;;12.10;70.10;;;;;;4993943;28;20449;-74
2023/04/01 13:42:07;;;;;;;1.90;0.70;;;12.20;69.90;;;;;;4994168;28;20948;-74
2023/04/01 13:44:49;;;;;;;0.63;0.43;;;12.20;70.10;;;;;;4984462;28;20449;-74